Time;durP1;ratioP1;P1;durP2;ratioP2;P2;SDS_P1;SDS_P2;PMS_P1;PMS_P2;Temp;Humidity;BMP_temperature;BMP_pressure;BME280_temperature;BME280_humidity;BME280_pressure;Samples;Min_cycle;Max_cycle;Signal;HPM_P1;HPM_P2
2021/12/02 00:00:58;;;;;;;4.70;3.33;;;;;;;;;;767760;180;920484;-68
2021/12/02 00:03:24;;;;;;;4.43;2.80;;;;;;;;;;772168;180;918798;-67
2021/12/02 00:05:50;;;;;;;5.03;2.83;;;;;;;;;;777849;180;919229;-67
2021/12/02 00:08:16;;;;;;;3.90;2.30;;;;;;;;;;771690;180;918764;-68
2021/12/02 00:10:41;;;;;;;5.15;2.85;;;;;;;;;;772385;180;915407;-68
2021/12/02 00:13:08;;;;;;;8.57;3.30;;;;;;;;;;775296;179;915396;-67
2021/12/02 00:15:41;;;;;;;6.63;4.10;;;;;;;;;;770978;180;916009;-67
2021/12/02 00:18:31;;;;;;;4.77;3.20;;;;;;;;;;770351;180;919662;-67
2021/12/02 00:23:22;;;;;;;3.80;2.63;;;;;;;;;;777030;180;919145;-67
2021/12/02 00:25:46;;;;;;;5.50;2.83;;;;;;;;;;770427;183;918565;-67
2021/12/02 00:28:12;;;;;;;5.53;3.23;;;;;;;;;;765254;180;919569;-66
2021/12/02 00:30:38;;;;;;;6.00;3.42;;;;;;;;;;762880;182;919280;-66
2021/12/02 00:33:04;;;;;;;3.37;2.03;;;;;;;;;;766324;182;919635;-66
2021/12/02 00:35:30;;;;;;;5.43;3.90;;;;;;;;;;768981;181;919444;-67
2021/12/02 00:37:56;;;;;;;5.23;3.03;;;;;;;;;;755743;182;919524;-66
2021/12/02 00:40:21;;;;;;;6.03;3.40;;;;;;;;;;767644;180;919388;-67
2021/12/02 00:42:47;;;;;;;5.10;3.37;;;;;;;;;;776222;180;939055;-66
2021/12/02 00:45:13;;;;;;;9.37;3.30;;;;;;;;;;770148;180;919578;-66
2021/12/02 00:47:39;;;;;;;9.10;3.30;;;;;;;;;;770109;178;920200;-66
2021/12/02 00:50:06;;;;;;;7.23;4.30;;;;;;;;;;774641;180;921199;-65
2021/12/02 00:52:31;;;;;;;6.13;4.03;;;;;;;;;;772595;180;918916;-67
2021/12/02 00:54:57;;;;;;;4.90;3.60;;;;;;;;;;772765;180;919733;-66
2021/12/02 00:57:24;;;;;;;5.57;3.50;;;;;;;;;;772619;180;919638;-65
2021/12/02 00:59:49;;;;;;;5.80;3.87;;;;;;;;;;763310;180;919616;-66
2021/12/02 01:02:15;;;;;;;5.87;3.87;;;;;;;;;;758535;183;925179;-67
2021/12/02 01:04:41;;;;;;;9.10;3.43;;;;;;;;;;766598;181;918639;-66
2021/12/02 01:07:07;;;;;;;5.17;3.70;;;;;;;;;;772987;180;917079;-67
2021/12/02 01:09:33;;;;;;;7.90;3.80;;;;;;;;;;768747;180;919990;-66
2021/12/02 01:11:59;;;;;;;4.30;2.90;;;;;;;;;;770288;180;918600;-67
2021/12/02 01:14:24;;;;;;;5.27;3.17;;;;;;;;;;776347;180;919548;-66
2021/12/02 01:16:50;;;;;;;5.73;4.30;;;;;;;;;;771371;180;920510;-68
2021/12/02 01:19:16;;;;;;;5.20;3.60;;;;;;;;;;772735;180;919119;-66
2021/12/02 01:21:43;;;;;;;6.30;3.75;;;;;;;;;;778590;180;919073;-67
2021/12/02 01:24:08;;;;;;;5.67;3.27;;;;;;;;;;767820;180;935148;-67
2021/12/02 01:26:34;;;;;;;5.60;3.63;;;;;;;;;;763170;180;912724;-68
2021/12/02 01:29:02;;;;;;;7.90;4.10;;;;;;;;;;766468;181;912935;-66
2021/12/02 01:31:31;;;;;;;6.70;3.20;;;;;;;;;;772961;180;912441;-66
2021/12/02 01:33:56;;;;;;;5.77;3.77;;;;;;;;;;762901;180;919583;-66
2021/12/02 01:36:22;;;;;;;6.17;3.67;;;;;;;;;;766327;180;809490;-66
2021/12/02 01:38:47;;;;;;;6.80;4.30;;;;;;;;;;775386;180;917428;-66
2021/12/02 01:41:13;;;;;;;5.50;4.00;;;;;;;;;;772743;180;919534;-67
2021/12/02 01:43:55;;;;;;;6.83;4.47;;;;;;;;;;773256;180;912471;-67
2021/12/02 01:46:23;;;;;;;5.63;4.07;;;;;;;;;;764593;182;917450;-66
2021/12/02 01:48:47;;;;;;;4.80;3.43;;;;;;;;;;762492;181;1000184;-69
2021/12/02 01:51:13;;;;;;;8.60;3.20;;;;;;;;;;771484;180;920449;-67
2021/12/02 01:53:39;;;;;;;5.90;3.87;;;;;;;;;;767284;180;921252;-67
2021/12/02 01:56:10;;;;;;;4.43;2.90;;;;;;;;;;768187;180;919486;-67
2021/12/02 01:58:37;;;;;;;4.30;3.50;;;;;;;;;;776060;180;919246;-67
2021/12/02 02:01:02;;;;;;;6.20;3.53;;;;;;;;;;765649;179;919046;-67
2021/12/02 02:03:28;;;;;;;3.90;2.87;;;;;;;;;;771645;180;920377;-67
2021/12/02 02:05:55;;;;;;;5.00;3.07;;;;;;;;;;771346;179;918533;-66
2021/12/02 02:08:21;;;;;;;5.60;3.30;;;;;;;;;;754063;183;919677;-67
2021/12/02 02:10:46;;;;;;;5.10;3.43;;;;;;;;;;748237;184;919841;-68
2021/12/02 02:13:12;;;;;;;4.20;3.00;;;;;;;;;;745224;185;918669;-68
2021/12/02 02:15:38;;;;;;;4.30;2.83;;;;;;;;;;773563;180;924517;-67
2021/12/02 02:18:09;;;;;;;5.40;3.83;;;;;;;;;;764329;180;920407;-65
2021/12/02 02:20:35;;;;;;;3.17;1.80;;;;;;;;;;765105;180;919721;-66
2021/12/02 02:23:01;;;;;;;6.10;3.50;;;;;;;;;;774976;180;918970;-67
2021/12/02 02:25:27;;;;;;;3.27;2.73;;;;;;;;;;767573;180;1021757;-67
2021/12/02 02:27:53;;;;;;;5.20;3.08;;;;;;;;;;768373;180;918614;-66
2021/12/02 02:30:19;;;;;;;8.67;3.10;;;;;;;;;;770215;180;919457;-66
2021/12/02 02:32:44;;;;;;;4.60;3.10;;;;;;;;;;772602;180;917902;-67
2021/12/02 02:35:10;;;;;;;5.97;2.70;;;;;;;;;;771340;179;919068;-67
2021/12/02 02:37:37;;;;;;;3.00;1.90;;;;;;;;;;768572;179;918293;-67
2021/12/02 02:40:04;;;;;;;5.93;3.23;;;;;;;;;;775130;181;919242;-66
2021/12/02 02:42:28;;;;;;;4.65;2.85;;;;;;;;;;768104;179;816802;-67
2021/12/02 02:44:54;;;;;;;3.20;2.23;;;;;;;;;;757523;181;919207;-67
2021/12/02 02:47:24;;;;;;;4.13;2.80;;;;;;;;;;772359;181;919454;-67
2021/12/02 02:49:45;;;;;;;3.22;2.53;;;;;;;;;;771479;179;918543;-66
2021/12/02 02:52:11;;;;;;;4.60;2.90;;;;;;;;;;762873;179;919638;-67
2021/12/02 02:54:37;;;;;;;3.60;2.80;;;;;;;;;;766764;181;921169;-66
2021/12/02 02:57:06;;;;;;;3.90;2.40;;;;;;;;;;775931;180;918379;-67
2021/12/02 02:59:40;;;;;;;5.30;2.80;;;;;;;;;;767915;180;921481;-67
2021/12/02 03:02:11;;;;;;;4.73;2.47;;;;;;;;;;762971;182;918824;-67
2021/12/02 03:04:37;;;;;;;3.60;2.57;;;;;;;;;;770763;180;1032508;-66
2021/12/02 03:07:02;;;;;;;4.20;2.97;;;;;;;;;;762362;183;919947;-68
2021/12/02 03:09:51;;;;;;;5.23;3.20;;;;;;;;;;767184;180;918728;-66
2021/12/02 03:12:16;;;;;;;4.87;3.47;;;;;;;;;;770988;180;919447;-67
2021/12/02 03:14:52;;;;;;;3.77;2.73;;;;;;;;;;770896;179;919529;-67
2021/12/02 03:17:03;;;;;;;3.30;2.73;;;;;;;;;;769897;180;920098;-67
2021/12/02 03:19:29;;;;;;;3.50;2.53;;;;;;;;;;768760;180;921872;-67
2021/12/02 03:21:55;;;;;;;3.70;3.10;;;;;;;;;;767145;180;920010;-65
2021/12/02 03:24:20;;;;;;;4.93;3.30;;;;;;;;;;766395;180;918763;-67
2021/12/02 03:26:47;;;;;;;5.10;2.57;;;;;;;;;;770049;181;919334;-67
2021/12/02 03:29:12;;;;;;;3.65;2.30;;;;;;;;;;754716;180;919931;-68
2021/12/02 03:31:38;;;;;;;3.20;2.27;;;;;;;;;;762478;181;927536;-67
2021/12/02 03:34:05;;;;;;;4.03;2.37;;;;;;;;;;774935;180;1022060;-67
2021/12/02 03:36:30;;;;;;;3.53;2.50;;;;;;;;;;767702;180;919040;-67
2021/12/02 03:38:55;;;;;;;4.00;2.97;;;;;;;;;;766141;180;919336;-67
2021/12/02 03:41:21;;;;;;;4.30;2.50;;;;;;;;;;772244;180;937974;-67
2021/12/02 03:43:47;;;;;;;3.30;2.40;;;;;;;;;;769630;180;920016;-67
2021/12/02 03:46:13;;;;;;;6.47;2.97;;;;;;;;;;762561;181;919117;-67
2021/12/02 03:48:39;;;;;;;4.30;2.60;;;;;;;;;;773435;181;919941;-66
2021/12/02 03:51:05;;;;;;;4.30;2.70;;;;;;;;;;767668;180;938091;-66
2021/12/02 03:53:31;;;;;;;3.70;2.87;;;;;;;;;;767219;180;919400;-67
2021/12/02 03:55:56;;;;;;;6.70;2.50;;;;;;;;;;767017;180;946203;-68
2021/12/02 03:58:22;;;;;;;12.33;3.50;;;;;;;;;;774674;180;919446;-67
2021/12/02 04:00:48;;;;;;;7.10;2.60;;;;;;;;;;767184;180;919879;-67
2021/12/02 04:03:14;;;;;;;5.70;2.00;;;;;;;;;;769337;180;919298;-67
2021/12/02 04:05:40;;;;;;;4.43;2.40;;;;;;;;;;768462;181;916491;-67
2021/12/02 04:08:06;;;;;;;3.40;1.90;;;;;;;;;;767726;180;914258;-66
2021/12/02 04:10:32;;;;;;;2.80;2.20;;;;;;;;;;767865;180;917573;-66
2021/12/02 04:13:13;;;;;;;3.07;2.00;;;;;;;;;;771499;181;1016338;-67
2021/12/02 04:15:39;;;;;;;2.90;2.05;;;;;;;;;;773761;180;1060368;-67
2021/12/02 04:18:01;;;;;;;5.97;3.23;;;;;;;;;;764230;180;1025028;-67
2021/12/02 04:20:26;;;;;;;4.37;2.50;;;;;;;;;;769170;180;919655;-67
2021/12/02 04:22:52;;;;;;;3.67;2.43;;;;;;;;;;776833;178;919032;-68
2021/12/02 04:25:18;;;;;;;3.70;2.50;;;;;;;;;;771318;180;916381;-67
2021/12/02 04:27:44;;;;;;;3.37;1.97;;;;;;;;;;768574;179;915637;-67
2021/12/02 04:30:10;;;;;;;4.37;2.67;;;;;;;;;;771845;180;915991;-66
2021/12/02 04:32:36;;;;;;;2.70;1.83;;;;;;;;;;774885;180;919067;-66
2021/12/02 04:35:02;;;;;;;3.87;2.10;;;;;;;;;;769202;180;919405;-67
2021/12/02 04:37:29;;;;;;;3.00;2.03;;;;;;;;;;768681;180;929268;-66
2021/12/02 04:39:54;;;;;;;3.80;1.90;;;;;;;;;;777526;179;920690;-67
2021/12/02 04:42:19;;;;;;;4.47;1.95;;;;;;;;;;771864;180;921466;-67
2021/12/02 04:44:45;;;;;;;4.00;2.03;;;;;;;;;;771424;180;919455;-67
2021/12/02 04:47:11;;;;;;;3.57;1.70;;;;;;;;;;775493;180;919643;-67
2021/12/02 04:49:37;;;;;;;3.73;2.20;;;;;;;;;;770727;180;919195;-67
2021/12/02 04:52:03;;;;;;;3.40;1.90;;;;;;;;;;765442;180;919032;-68
2021/12/02 04:54:29;;;;;;;3.97;2.20;;;;;;;;;;769689;180;918692;-67
2021/12/02 04:56:55;;;;;;;4.35;2.20;;;;;;;;;;766076;180;918959;-68
2021/12/02 04:59:21;;;;;;;3.30;2.13;;;;;;;;;;759591;180;918793;-68
2021/12/02 05:01:46;;;;;;;2.77;1.90;;;;;;;;;;766754;180;919336;-68
2021/12/02 05:04:12;;;;;;;3.30;2.20;;;;;;;;;;772111;180;919263;-68
2021/12/02 05:06:38;;;;;;;3.37;1.80;;;;;;;;;;769984;180;920914;-68
2021/12/02 05:09:04;;;;;;;3.58;1.98;;;;;;;;;;770515;180;919204;-68
2021/12/02 05:11:30;;;;;;;3.40;1.97;;;;;;;;;;772918;180;918784;-68
2021/12/02 05:13:56;;;;;;;3.55;2.10;;;;;;;;;;768038;180;918921;-68
2021/12/02 05:16:21;;;;;;;3.20;2.25;;;;;;;;;;765990;180;1021174;-68
2021/12/02 05:18:47;;;;;;;4.23;2.67;;;;;;;;;;775491;180;639085;-68
2021/12/02 05:21:13;;;;;;;3.60;2.40;;;;;;;;;;776117;179;626879;-68
2021/12/02 05:23:39;;;;;;;4.40;2.60;;;;;;;;;;766125;180;629323;-68
2021/12/02 05:26:05;;;;;;;3.50;2.27;;;;;;;;;;770292;180;614590;-68
2021/12/02 05:28:31;;;;;;;5.47;2.40;;;;;;;;;;775379;180;919504;-67
2021/12/02 05:30:57;;;;;;;3.23;2.30;;;;;;;;;;766765;180;919760;-67
2021/12/02 05:33:23;;;;;;;3.10;2.07;;;;;;;;;;762789;181;919810;-67
2021/12/02 05:35:48;;;;;;;4.83;2.50;;;;;;;;;;773678;180;920025;-68
2021/12/02 05:38:14;;;;;;;4.37;2.40;;;;;;;;;;772465;180;925537;-67
2021/12/02 05:40:40;;;;;;;4.10;2.58;;;;;;;;;;772093;180;919368;-68
2021/12/02 05:43:06;;;;;;;3.03;1.93;;;;;;;;;;767348;181;919336;-67
2021/12/02 05:45:32;;;;;;;6.03;3.03;;;;;;;;;;767034;180;919355;-67
2021/12/02 05:47:58;;;;;;;2.77;2.23;;;;;;;;;;765393;179;919031;-68
2021/12/02 05:50:24;;;;;;;3.30;2.20;;;;;;;;;;764815;181;920800;-66
2021/12/02 05:52:49;;;;;;;3.47;2.27;;;;;;;;;;773094;180;919482;-67
2021/12/02 05:55:15;;;;;;;5.80;2.80;;;;;;;;;;766080;180;920097;-67
2021/12/02 05:57:41;;;;;;;4.53;2.37;;;;;;;;;;768567;180;919363;-69
2021/12/02 06:00:07;;;;;;;3.80;1.93;;;;;;;;;;776250;180;634051;-68
2021/12/02 06:02:36;;;;;;;2.87;2.12;;;;;;;;;;769783;179;919406;-67
2021/12/02 06:04:59;;;;;;;4.17;2.47;;;;;;;;;;769612;180;919923;-67
2021/12/02 06:07:25;;;;;;;3.40;2.60;;;;;;;;;;774758;180;919066;-68
2021/12/02 06:09:52;;;;;;;3.67;2.43;;;;;;;;;;768439;180;920697;-67
2021/12/02 06:12:16;;;;;;;3.27;2.40;;;;;;;;;;768336;180;1020874;-67
2021/12/02 06:14:42;;;;;;;4.10;2.60;;;;;;;;;;770101;180;919262;-67
2021/12/02 06:17:08;;;;;;;3.67;1.97;;;;;;;;;;776469;180;918421;-67
2021/12/02 06:19:34;;;;;;;2.67;2.10;;;;;;;;;;771754;180;919705;-67
2021/12/02 06:22:00;;;;;;;2.50;1.80;;;;;;;;;;769304;180;919485;-67
2021/12/02 06:24:30;;;;;;;3.20;2.33;;;;;;;;;;771937;180;918834;-68
2021/12/02 06:26:54;;;;;;;3.60;2.10;;;;;;;;;;770693;180;919126;-67
2021/12/02 06:29:20;;;;;;;3.20;2.20;;;;;;;;;;765794;180;923409;-67
2021/12/02 06:31:46;;;;;;;2.60;1.90;;;;;;;;;;776384;180;919462;-67
2021/12/02 06:34:12;;;;;;;3.10;2.47;;;;;;;;;;770498;180;919193;-67
2021/12/02 06:36:37;;;;;;;4.90;2.37;;;;;;;;;;766748;179;919767;-67
2021/12/02 06:39:03;;;;;;;5.20;2.35;;;;;;;;;;768913;180;918164;-67
2021/12/02 06:41:29;;;;;;;5.37;2.23;;;;;;;;;;761240;183;917515;-67
2021/12/02 06:43:55;;;;;;;3.70;2.13;;;;;;;;;;766972;179;920748;-67
2021/12/02 06:46:21;;;;;;;4.00;2.07;;;;;;;;;;768510;179;919365;-65
2021/12/02 06:48:48;;;;;;;3.43;2.30;;;;;;;;;;769701;180;916421;-67
2021/12/02 06:51:13;;;;;;;3.53;2.20;;;;;;;;;;770146;180;915493;-66
2021/12/02 06:53:38;;;;;;;5.43;2.90;;;;;;;;;;769766;180;1017516;-67
2021/12/02 06:56:04;;;;;;;3.23;2.20;;;;;;;;;;774927;180;914940;-66
2021/12/02 06:58:30;;;;;;;3.63;2.57;;;;;;;;;;768860;179;919897;-65
2021/12/02 07:00:56;;;;;;;3.80;2.30;;;;;;;;;;766301;180;919788;-66
2021/12/02 07:03:22;;;;;;;3.20;1.87;;;;;;;;;;771704;180;927306;-65
2021/12/02 07:05:48;;;;;;;4.70;2.50;;;;;;;;;;770382;180;920111;-66
2021/12/02 07:08:14;;;;;;;4.53;1.90;;;;;;;;;;760254;181;1017476;-66
2021/12/02 07:10:40;;;;;;;3.12;1.95;;;;;;;;;;769390;180;919103;-66
2021/12/02 07:13:06;;;;;;;4.43;1.93;;;;;;;;;;778448;180;923828;-67
2021/12/02 07:15:35;;;;;;;4.00;2.00;;;;;;;;;;767357;180;919407;-66
2021/12/02 07:17:59;;;;;;;3.40;1.70;;;;;;;;;;768614;180;1021972;-66
2021/12/02 07:20:24;;;;;;;2.90;1.93;;;;;;;;;;772129;179;923590;-66
2021/12/02 07:22:50;;;;;;;2.60;1.90;;;;;;;;;;768298;181;919937;-66
2021/12/02 07:25:16;;;;;;;3.23;2.33;;;;;;;;;;770190;180;919500;-65
2021/12/02 07:27:42;;;;;;;4.17;2.10;;;;;;;;;;771466;180;919382;-66
2021/12/02 07:30:08;;;;;;;5.00;2.23;;;;;;;;;;765781;180;920591;-66
2021/12/02 07:32:35;;;;;;;4.60;2.30;;;;;;;;;;768206;180;918250;-66
2021/12/02 07:34:59;;;;;;;4.00;2.70;;;;;;;;;;767790;180;919035;-66
2021/12/02 07:37:25;;;;;;;7.07;2.77;;;;;;;;;;775436;180;919050;-68
2021/12/02 07:39:51;;;;;;;4.80;2.53;;;;;;;;;;767935;180;919526;-66
2021/12/02 07:42:17;;;;;;;5.73;2.63;;;;;;;;;;773132;180;917871;-67
2021/12/02 07:44:43;;;;;;;5.23;2.93;;;;;;;;;;770038;179;1037356;-66
2021/12/02 07:47:09;;;;;;;4.83;2.90;;;;;;;;;;768622;180;921043;-66
2021/12/02 07:49:34;;;;;;;4.30;2.60;;;;;;;;;;770631;180;919530;-66
2021/12/02 07:52:00;;;;;;;4.80;2.93;;;;;;;;;;774389;180;918869;-66
2021/12/02 07:54:26;;;;;;;9.20;3.60;;;;;;;;;;767237;180;919893;-66
2021/12/02 07:56:52;;;;;;;4.80;2.70;;;;;;;;;;771114;179;919808;-66
2021/12/02 07:59:18;;;;;;;3.70;2.60;;;;;;;;;;768534;179;922673;-65
2021/12/02 08:01:44;;;;;;;5.70;2.97;;;;;;;;;;766693;180;927028;-66
2021/12/02 08:04:09;;;;;;;7.67;3.17;;;;;;;;;;766675;180;924898;-66
2021/12/02 08:06:35;;;;;;;5.03;3.30;;;;;;;;;;762834;180;1018373;-66
2021/12/02 08:09:01;;;;;;;10.00;2.80;;;;;;;;;;773616;180;916068;-66
2021/12/02 08:11:27;;;;;;;5.20;3.03;;;;;;;;;;769684;180;921052;-66
2021/12/02 08:13:54;;;;;;;5.27;3.10;;;;;;;;;;766610;179;918529;-65
2021/12/02 08:16:19;;;;;;;5.07;3.27;;;;;;;;;;761285;183;919061;-65
2021/12/02 08:18:44;;;;;;;4.93;3.27;;;;;;;;;;763568;181;919640;-66
2021/12/02 08:21:10;;;;;;;6.20;4.25;;;;;;;;;;768912;180;1105213;-66
2021/12/02 08:23:36;;;;;;;6.60;3.63;;;;;;;;;;768995;180;920775;-65
2021/12/02 08:26:02;;;;;;;9.00;3.80;;;;;;;;;;771305;179;919176;-66
2021/12/02 08:28:28;;;;;;;4.77;3.33;;;;;;;;;;765306;180;1225645;-66
2021/12/02 08:30:54;;;;;;;4.43;3.42;;;;;;;;;;767190;180;917340;-66
2021/12/02 08:33:20;;;;;;;4.40;3.33;;;;;;;;;;775920;180;920268;-65
2021/12/02 08:35:46;;;;;;;5.20;3.60;;;;;;;;;;769101;180;915539;-67
2021/12/02 08:38:13;;;;;;;5.50;4.03;;;;;;;;;;769034;180;914546;-68
2021/12/02 08:40:37;;;;;;;4.00;2.50;;;;;;;;;;775112;180;921328;-66
2021/12/02 08:43:04;;;;;;;5.75;2.90;;;;;;;;;;766645;181;919051;-66
2021/12/02 08:45:30;;;;;;;3.63;2.40;;;;;;;;;;770478;180;919526;-66
2021/12/02 08:47:56;;;;;;;3.70;2.62;;;;;;;;;;773270;180;1021630;-66
2021/12/02 08:50:22;;;;;;;5.00;2.10;;;;;;;;;;763717;183;919878;-66
2021/12/02 08:52:48;;;;;;;3.50;2.40;;;;;;;;;;768499;180;920227;-66
2021/12/02 08:55:14;;;;;;;3.70;1.93;;;;;;;;;;764774;180;1009040;-66
2021/12/02 08:57:40;;;;;;;2.93;2.13;;;;;;;;;;773573;180;917615;-66
2021/12/02 09:00:06;;;;;;;2.83;1.97;;;;;;;;;;767428;180;1124802;-66
2021/12/02 09:02:32;;;;;;;3.63;2.63;;;;;;;;;;769657;180;916488;-66
2021/12/02 09:04:58;;;;;;;3.43;2.30;;;;;;;;;;776210;180;919542;-66
2021/12/02 09:07:24;;;;;;;2.93;2.00;;;;;;;;;;766172;179;918104;-66
2021/12/02 09:09:49;;;;;;;2.70;1.70;;;;;;;;;;767553;180;920887;-65
2021/12/02 09:12:15;;;;;;;4.20;2.57;;;;;;;;;;774274;179;919485;-66
2021/12/02 09:14:41;;;;;;;3.10;1.90;;;;;;;;;;766118;180;916705;-66
2021/12/02 09:17:07;;;;;;;2.73;1.80;;;;;;;;;;767623;180;919386;-66
2021/12/02 09:19:33;;;;;;;3.63;2.20;;;;;;;;;;767812;180;918715;-66
2021/12/02 09:21:59;;;;;;;4.10;1.90;;;;;;;;;;772216;180;918909;-66
2021/12/02 09:24:24;;;;;;;3.57;1.80;;;;;;;;;;766461;180;920015;-66
2021/12/02 09:26:50;;;;;;;3.35;1.80;;;;;;;;;;767053;180;919146;-65
2021/12/02 09:29:16;;;;;;;2.27;1.40;;;;;;;;;;775464;180;919776;-66
2021/12/02 09:31:42;;;;;;;3.20;1.73;;;;;;;;;;770198;180;918281;-66
2021/12/02 09:34:08;;;;;;;2.63;1.73;;;;;;;;;;768132;180;918608;-66
2021/12/02 09:36:34;;;;;;;3.93;1.73;;;;;;;;;;772727;180;918166;-66
2021/12/02 09:39:00;;;;;;;3.13;1.57;;;;;;;;;;770516;180;920077;-66
2021/12/02 09:41:25;;;;;;;2.10;1.30;;;;;;;;;;765280;180;1022401;-66
2021/12/02 09:43:51;;;;;;;2.67;1.57;;;;;;;;;;766488;180;925565;-65
2021/12/02 09:46:17;;;;;;;2.83;1.50;;;;;;;;;;776209;179;919184;-67
2021/12/02 09:48:44;;;;;;;2.57;1.57;;;;;;;;;;762798;179;918171;-66
2021/12/02 09:51:12;;;;;;;2.27;1.33;;;;;;;;;;764542;179;919508;-66
2021/12/02 09:53:47;;;;;;;1.90;1.13;;;;;;;;;;770187;180;913408;-66
2021/12/02 09:58:46;;;;;;;4.33;1.83;;;;;;;;;;770047;180;919521;-67
2021/12/02 10:01:14;;;;;;;3.27;1.57;;;;;;;;;;769880;180;918666;-67
2021/12/02 10:03:40;;;;;;;2.57;1.43;;;;;;;;;;773806;180;919198;-66
2021/12/02 10:06:06;;;;;;;2.57;1.23;;;;;;;;;;768035;180;918749;-66
2021/12/02 10:08:32;;;;;;;2.83;1.30;;;;;;;;;;765762;180;918818;-67
2021/12/02 10:10:59;;;;;;;2.93;1.50;;;;;;;;;;770141;180;919519;-66
2021/12/02 10:13:27;;;;;;;4.73;1.60;;;;;;;;;;775463;180;917552;-66
2021/12/02 10:16:04;;;;;;;2.77;1.87;;;;;;;;;;768375;180;919294;-66
2021/12/02 10:18:41;;;;;;;7.33;2.43;;;;;;;;;;763976;180;919317;-66
2021/12/02 10:21:09;;;;;;;3.90;1.97;;;;;;;;;;770966;179;943233;-67
2021/12/02 10:23:43;;;;;;;2.50;1.80;;;;;;;;;;770782;180;917938;-67
2021/12/02 10:26:01;;;;;;;2.50;1.77;;;;;;;;;;775545;180;919145;-67
2021/12/02 10:28:26;;;;;;;3.30;1.73;;;;;;;;;;767798;180;919612;-66
2021/12/02 10:30:52;;;;;;;4.00;1.97;;;;;;;;;;770381;180;920041;-66
2021/12/02 10:33:35;;;;;;;2.83;2.00;;;;;;;;;;774061;179;919146;-66
2021/12/02 10:36:01;;;;;;;5.70;2.83;;;;;;;;;;772338;180;919134;-66
2021/12/02 10:38:32;;;;;;;3.17;2.37;;;;;;;;;;766298;180;919631;-66
2021/12/02 10:40:59;;;;;;;3.57;2.17;;;;;;;;;;772269;179;918148;-66
2021/12/02 10:43:24;;;;;;;4.70;2.03;;;;;;;;;;763223;180;915602;-66
2021/12/02 10:45:50;;;;;;;3.50;2.23;;;;;;;;;;775912;180;916054;-66
2021/12/02 10:48:16;;;;;;;4.57;2.00;;;;;;;;;;770486;180;916511;-66
2021/12/02 10:50:41;;;;;;;6.33;2.00;;;;;;;;;;769818;181;915423;-66
2021/12/02 10:53:07;;;;;;;5.20;2.33;;;;;;;;;;776939;180;1021496;-66
2021/12/02 10:55:33;;;;;;;3.63;2.50;;;;;;;;;;769232;180;918729;-66
2021/12/02 10:57:59;;;;;;;3.20;2.37;;;;;;;;;;769689;180;919377;-66
2021/12/02 11:00:28;;;;;;;4.53;2.57;;;;;;;;;;772390;180;919309;-66
2021/12/02 11:02:53;;;;;;;3.15;2.20;;;;;;;;;;775934;180;919912;-66
2021/12/02 11:05:23;;;;;;;6.40;2.40;;;;;;;;;;762511;180;919386;-66
2021/12/02 11:07:51;;;;;;;11.90;3.07;;;;;;;;;;774838;179;917197;-66
2021/12/02 11:10:17;;;;;;;5.60;3.37;;;;;;;;;;774915;179;919035;-66
2021/12/02 11:12:44;;;;;;;4.97;1.83;;;;;;;;;;768029;180;916474;-66
2021/12/02 11:15:12;;;;;;;3.70;2.23;;;;;;;;;;770011;180;969479;-66
2021/12/02 11:17:45;;;;;;;4.00;2.40;;;;;;;;;;764875;181;919864;-66
2021/12/02 11:20:11;;;;;;;3.80;2.63;;;;;;;;;;772995;180;918441;-66
2021/12/02 11:22:37;;;;;;;3.23;1.87;;;;;;;;;;767219;180;919506;-67
2021/12/02 11:25:03;;;;;;;3.72;2.33;;;;;;;;;;769075;179;917821;-66
2021/12/02 11:27:38;;;;;;;3.83;2.62;;;;;;;;;;766224;180;920777;-65
2021/12/02 11:30:04;;;;;;;4.03;2.07;;;;;;;;;;766306;182;920153;-66
2021/12/02 11:32:34;;;;;;;3.50;2.43;;;;;;;;;;771570;180;1018087;-66
2021/12/02 11:35:01;;;;;;;4.80;3.07;;;;;;;;;;769252;180;919789;-66
2021/12/02 11:37:26;;;;;;;5.00;3.07;;;;;;;;;;771671;180;918397;-66
2021/12/02 11:39:52;;;;;;;6.17;3.00;;;;;;;;;;777954;180;919678;-66
2021/12/02 11:42:18;;;;;;;8.40;3.53;;;;;;;;;;759673;181;919745;-68
2021/12/02 11:44:44;;;;;;;6.73;3.33;;;;;;;;;;768580;180;921825;-66
2021/12/02 11:47:10;;;;;;;5.50;3.90;;;;;;;;;;778662;180;917160;-66
2021/12/02 11:49:36;;;;;;;6.30;3.67;;;;;;;;;;767430;179;941074;-66
2021/12/02 11:52:01;;;;;;;4.27;2.87;;;;;;;;;;767748;180;916935;-66
2021/12/02 11:54:27;;;;;;;7.00;3.07;;;;;;;;;;773377;180;920048;-66
2021/12/02 11:56:53;;;;;;;3.70;2.60;;;;;;;;;;768659;180;920709;-65
2021/12/02 11:59:20;;;;;;;5.00;3.00;;;;;;;;;;772017;180;919309;-66
2021/12/02 12:01:45;;;;;;;3.50;2.53;;;;;;;;;;770145;180;912542;-66
2021/12/02 12:04:11;;;;;;;5.83;2.90;;;;;;;;;;766136;182;920478;-66
2021/12/02 12:06:37;;;;;;;5.20;2.40;;;;;;;;;;771345;179;915320;-66
2021/12/02 12:09:04;;;;;;;3.95;2.40;;;;;;;;;;763327;181;924031;-66
2021/12/02 12:11:29;;;;;;;3.50;2.17;;;;;;;;;;772530;180;912943;-66
2021/12/02 12:13:55;;;;;;;4.27;3.33;;;;;;;;;;767055;180;913176;-66
2021/12/02 12:16:21;;;;;;;4.60;2.37;;;;;;;;;;765383;180;1012185;-66
2021/12/02 12:18:46;;;;;;;3.43;2.20;;;;;;;;;;776064;180;902762;-66
2021/12/02 12:21:12;;;;;;;5.20;2.70;;;;;;;;;;769010;180;915955;-65
2021/12/02 12:23:40;;;;;;;3.80;2.30;;;;;;;;;;771733;180;916213;-66
2021/12/02 12:26:26;;;;;;;4.97;2.42;;;;;;;;;;773012;180;933341;-65
2021/12/02 12:28:55;;;;;;;5.00;2.97;;;;;;;;;;762980;180;919863;-66
2021/12/02 12:31:21;;;;;;;4.00;2.20;;;;;;;;;;772256;180;916779;-66
2021/12/02 12:33:47;;;;;;;5.40;2.90;;;;;;;;;;761686;181;915430;-66
2021/12/02 12:36:22;;;;;;;4.33;3.07;;;;;;;;;;767327;180;1016391;-66
2021/12/02 12:38:45;;;;;;;3.70;2.60;;;;;;;;;;766172;180;1014728;-66
2021/12/02 12:41:11;;;;;;;6.57;2.87;;;;;;;;;;773885;180;913178;-65
2021/12/02 12:43:37;;;;;;;4.03;2.67;;;;;;;;;;768415;179;913773;-67
2021/12/02 12:46:03;;;;;;;4.63;3.53;;;;;;;;;;771978;180;919271;-66
2021/12/02 12:48:29;;;;;;;5.10;2.87;;;;;;;;;;776779;180;910550;-66
2021/12/02 12:50:55;;;;;;;6.40;3.67;;;;;;;;;;771754;180;913681;-66
2021/12/02 12:53:21;;;;;;;4.40;3.07;;;;;;;;;;768279;180;1021129;-66
2021/12/02 12:56:02;;;;;;;4.90;2.77;;;;;;;;;;773008;180;918247;-66
2021/12/02 12:58:29;;;;;;;5.77;2.90;;;;;;;;;;767373;183;918888;-66
2021/12/02 13:00:55;;;;;;;3.90;2.97;;;;;;;;;;772360;180;919445;-65
2021/12/02 13:03:25;;;;;;;9.15;3.50;;;;;;;;;;762285;181;919584;-65
2021/12/02 13:05:51;;;;;;;5.73;3.37;;;;;;;;;;765091;180;1021178;-65
2021/12/02 13:08:15;;;;;;;4.77;3.40;;;;;;;;;;774854;180;918322;-65
2021/12/02 13:10:48;;;;;;;6.28;3.10;;;;;;;;;;769157;180;919276;-65
2021/12/02 13:13:14;;;;;;;8.07;3.70;;;;;;;;;;769587;180;919144;-66
2021/12/02 13:15:40;;;;;;;4.32;2.67;;;;;;;;;;771075;180;919161;-64
2021/12/02 13:18:06;;;;;;;7.23;3.80;;;;;;;;;;772785;180;919613;-66
2021/12/02 13:20:32;;;;;;;4.97;3.03;;;;;;;;;;767821;180;919546;-66
2021/12/02 13:23:03;;;;;;;6.57;3.80;;;;;;;;;;767007;180;1021813;-66
2021/12/02 13:25:29;;;;;;;9.20;4.53;;;;;;;;;;772443;180;918986;-66
2021/12/02 13:27:55;;;;;;;6.87;4.13;;;;;;;;;;765511;180;919575;-66
2021/12/02 13:30:21;;;;;;;4.60;3.47;;;;;;;;;;768951;180;918896;-67
2021/12/02 13:32:47;;;;;;;6.82;4.45;;;;;;;;;;773764;180;919287;-65
2021/12/02 13:35:19;;;;;;;9.43;3.70;;;;;;;;;;769665;180;919895;-68
2021/12/02 13:37:45;;;;;;;5.47;3.73;;;;;;;;;;765545;179;919127;-66
2021/12/02 13:40:13;;;;;;;4.80;3.53;;;;;;;;;;770258;180;939520;-67
2021/12/02 13:42:38;;;;;;;7.93;4.10;;;;;;;;;;771956;180;923537;-66
2021/12/02 13:45:04;;;;;;;4.63;3.80;;;;;;;;;;768454;179;919521;-67
2021/12/02 13:47:34;;;;;;;5.20;3.53;;;;;;;;;;767184;180;919630;-66
2021/12/02 13:49:57;;;;;;;8.57;4.87;;;;;;;;;;771819;180;919605;-67
2021/12/02 13:52:34;;;;;;;7.27;5.30;;;;;;;;;;767570;181;919302;-67
2021/12/02 13:54:57;;;;;;;10.13;5.40;;;;;;;;;;772133;178;618799;-67
2021/12/02 13:57:36;;;;;;;8.03;4.73;;;;;;;;;;771153;179;919556;-67
2021/12/02 14:00:04;;;;;;;5.80;3.67;;;;;;;;;;767110;179;919678;-67
2021/12/02 14:02:30;;;;;;;8.87;4.33;;;;;;;;;;773651;180;919780;-67
2021/12/02 14:04:56;;;;;;;6.13;4.50;;;;;;;;;;771578;180;1021146;-67
2021/12/02 14:07:22;;;;;;;7.68;4.80;;;;;;;;;;773392;180;919529;-67
2021/12/02 14:09:47;;;;;;;4.50;3.63;;;;;;;;;;770854;179;919257;-67
2021/12/02 14:12:14;;;;;;;6.97;3.90;;;;;;;;;;770602;181;919503;-67
2021/12/02 14:14:39;;;;;;;6.00;4.03;;;;;;;;;;766853;180;918144;-66
2021/12/02 14:17:05;;;;;;;7.10;4.83;;;;;;;;;;760171;180;2003578;-66
2021/12/02 14:19:31;;;;;;;5.53;3.40;;;;;;;;;;776240;180;846352;-67
2021/12/02 14:21:57;;;;;;;5.70;3.80;;;;;;;;;;769830;180;919213;-67
2021/12/02 14:24:23;;;;;;;6.50;4.13;;;;;;;;;;770157;180;919538;-67
2021/12/02 14:26:49;;;;;;;7.07;4.73;;;;;;;;;;774581;180;919610;-67
2021/12/02 14:29:15;;;;;;;10.07;4.77;;;;;;;;;;768568;180;1021188;-67